createdAt,value
2018-09-11T00:01:13.976Z,52.88
2018-09-11T00:03:42.696Z,53.65
2018-09-11T00:06:11.303Z,53.41
2018-09-11T00:08:39.972Z,54.21
2018-09-11T00:11:08.530Z,53.43
2018-09-11T00:13:37.094Z,54.20
2018-09-11T00:16:05.604Z,53.69
2018-09-11T00:18:34.189Z,53.46
2018-09-11T00:21:02.768Z,53.62
2018-09-11T00:23:31.415Z,53.70
2018-09-11T00:25:59.993Z,54.34
2018-09-11T00:28:28.503Z,53.63
2018-09-11T00:30:57.141Z,53.97
2018-09-11T00:33:25.716Z,53.96
2018-09-11T00:35:54.305Z,53.19
2018-09-11T00:38:22.893Z,53.71
2018-09-11T00:40:51.503Z,52.97
2018-09-11T00:43:20.085Z,53.27
2018-09-11T00:45:48.646Z,53.23
2018-09-11T00:48:17.348Z,51.80
2018-09-11T00:50:45.990Z,52.00
2018-09-11T00:53:14.513Z,52.28
2018-09-11T00:55:43.029Z,52.28
2018-09-11T00:58:11.593Z,52.09
2018-09-11T01:00:40.208Z,51.79
2018-09-11T01:03:08.808Z,51.21
2018-09-11T01:05:37.430Z,51.25
2018-09-11T01:08:05.966Z,51.31
2018-09-11T01:10:34.578Z,51.81
2018-09-11T01:13:03.196Z,51.29
2018-09-11T01:15:31.826Z,50.97
2018-09-11T01:18:00.476Z,51.78
2018-09-11T01:20:29.120Z,51.80
2018-09-11T01:22:57.649Z,50.98
2018-09-11T01:25:26.197Z,51.44
2018-09-11T01:27:54.710Z,51.07
2018-09-11T01:30:23.860Z,51.71
2018-09-11T01:32:52.898Z,51.45
2018-09-11T01:35:22.197Z,51.52
2018-09-11T01:37:50.737Z,51.32
2018-09-11T01:40:19.372Z,51.52
2018-09-11T01:42:47.905Z,51.01
2018-09-11T01:45:16.540Z,51.75
2018-09-11T01:47:45.124Z,51.78
2018-09-11T01:50:13.705Z,51.09
2018-09-11T01:52:42.374Z,51.70
2018-09-11T01:55:10.917Z,51.78
2018-09-11T01:57:39.562Z,51.43
2018-09-11T02:00:12.306Z,51.47
2018-09-11T02:02:40.921Z,51.85
2018-09-11T02:05:09.528Z,52.55
2018-09-11T02:07:38.142Z,51.85
2018-09-11T02:10:06.783Z,52.18
2018-09-11T02:12:35.264Z,52.10
2018-09-11T02:15:03.991Z,52.85
2018-09-11T02:17:32.642Z,52.81
2018-09-11T02:20:01.224Z,53.11
2018-09-11T02:22:29.765Z,52.36
2018-09-11T02:24:59.673Z,52.57
2018-09-11T02:27:28.381Z,52.70
2018-09-11T02:29:56.955Z,52.43
2018-09-11T02:32:26.101Z,52.91
2018-09-11T02:34:55.100Z,53.17
2018-09-11T02:37:23.731Z,52.74
2018-09-11T02:39:52.465Z,53.23
2018-09-11T02:42:20.994Z,53.58
2018-09-11T02:44:49.612Z,53.18
2018-09-11T02:47:18.197Z,53.10
2018-09-11T02:49:46.814Z,53.60
2018-09-11T02:52:15.447Z,53.46
2018-09-11T02:54:44.251Z,53.43
2018-09-11T02:57:12.802Z,53.74
2018-09-11T02:59:41.425Z,53.96
2018-09-11T03:02:10.002Z,53.28
2018-09-11T03:04:38.564Z,53.88
2018-09-11T03:07:07.182Z,54.13
2018-09-11T03:09:35.757Z,53.78
2018-09-11T03:12:04.424Z,53.58
2018-09-11T03:14:32.954Z,53.68
2018-09-11T03:17:01.536Z,53.44
2018-09-11T03:19:30.164Z,53.68
2018-09-11T03:21:58.801Z,54.30
2018-09-11T03:24:27.414Z,53.42
2018-09-11T03:26:55.974Z,54.14
2018-09-11T03:29:24.521Z,54.34
2018-09-11T03:31:53.108Z,54.28
2018-09-11T03:34:21.681Z,54.02
2018-09-11T03:36:50.767Z,53.58
2018-09-11T03:39:19.435Z,53.25
2018-09-11T03:41:48.088Z,53.59
2018-09-11T03:44:16.724Z,53.71
2018-09-11T03:46:45.385Z,52.80
2018-09-11T03:49:13.936Z,53.48
2018-09-11T03:51:42.580Z,52.58
2018-09-11T03:54:11.140Z,52.84
2018-09-11T03:56:39.823Z,52.98
2018-09-11T03:59:08.419Z,52.46
2018-09-11T04:01:37.029Z,52.24
2018-09-11T04:04:05.627Z,51.99
2018-09-11T04:06:34.182Z,52.48
2018-09-11T04:09:02.781Z,52.66
2018-09-11T04:11:31.422Z,52.78
2018-09-11T04:14:00.052Z,52.04
2018-09-11T04:16:28.728Z,52.64
2018-09-11T04:18:57.294Z,52.05
2018-09-11T04:21:27.703Z,52.29
2018-09-11T04:23:56.267Z,52.57
2018-09-11T04:26:24.884Z,51.83
2018-09-11T04:28:53.553Z,51.50
2018-09-11T04:31:22.342Z,52.21
2018-09-11T04:33:50.988Z,51.81
2018-09-11T04:36:19.586Z,51.58
2018-09-11T04:38:48.264Z,52.36
2018-09-11T04:41:16.795Z,51.71
2018-09-11T04:43:45.515Z,52.20
2018-09-11T04:46:14.149Z,52.35
2018-09-11T04:48:44.732Z,51.50
2018-09-11T04:51:13.329Z,51.49
2018-09-11T04:53:41.933Z,52.10
2018-09-11T04:56:10.547Z,51.68
2018-09-11T04:58:39.188Z,51.41
2018-09-11T05:01:07.795Z,52.29
2018-09-11T05:03:39.304Z,52.30
2018-09-11T05:06:08.018Z,51.79
2018-09-11T05:08:36.632Z,51.71
2018-09-11T05:11:05.484Z,52.02
2018-09-11T05:13:34.440Z,51.59
2018-09-11T05:16:03.032Z,51.71
2018-09-11T05:18:31.690Z,51.56
2018-09-11T05:21:00.756Z,51.49
2018-09-11T05:23:29.786Z,51.93
2018-09-11T05:25:59.165Z,51.68
2018-09-11T05:28:37.803Z,51.92
2018-09-11T05:31:07.099Z,51.56
2018-09-11T05:33:36.022Z,51.32
2018-09-11T05:38:41.988Z,51.17
2018-09-11T05:41:11.407Z,51.29
2018-09-11T05:43:40.187Z,51.20
2018-09-11T05:46:12.334Z,51.51
2018-09-11T05:48:41.393Z,51.41
2018-09-11T05:51:13.881Z,51.53
2018-09-11T05:53:42.755Z,51.54
2018-09-11T05:56:11.476Z,50.92
2018-09-11T05:58:40.121Z,50.94
2018-09-11T06:01:08.756Z,51.69
2018-09-11T06:03:37.337Z,51.50
2018-09-11T06:06:07.030Z,50.94
2018-09-11T06:08:35.558Z,50.74
2018-09-11T06:11:04.109Z,51.03
2018-09-11T06:13:32.685Z,51.57
2018-09-11T06:16:01.940Z,51.58
2018-09-11T06:18:30.602Z,50.88
2018-09-11T06:20:59.190Z,51.01
2018-09-11T06:23:27.661Z,50.69
2018-09-11T06:25:56.316Z,50.15
2018-09-11T06:28:24.963Z,49.22
2018-09-11T06:30:53.558Z,49.16
2018-09-11T06:33:22.053Z,49.02
2018-09-11T06:35:50.640Z,48.25
2018-09-11T06:38:19.226Z,48.02
2018-09-11T06:40:47.869Z,48.61
2018-09-11T06:43:16.693Z,48.28
2018-09-11T06:45:45.281Z,46.63
2018-09-11T06:48:13.893Z,46.53
2018-09-11T06:50:42.443Z,45.95
2018-09-11T06:53:11.385Z,45.37
2018-09-11T06:55:39.979Z,45.56
2018-09-11T06:58:08.928Z,44.59
2018-09-11T07:00:37.702Z,43.51
2018-09-11T07:03:06.548Z,42.07
2018-09-11T07:05:35.159Z,40.23
2018-09-11T07:08:03.816Z,40.65
2018-09-11T07:10:32.491Z,39.14
2018-09-11T07:13:01.183Z,39.23
2018-09-11T07:15:29.889Z,39.64
2018-09-11T07:17:58.802Z,37.55
2018-09-11T07:20:27.697Z,36.22
2018-09-11T07:22:56.314Z,36.10
2018-09-11T07:25:25.047Z,34.94
2018-09-11T07:27:55.236Z,34.69
2018-09-11T07:30:24.136Z,33.96
2018-09-11T07:32:52.885Z,34.00
2018-09-11T07:35:21.495Z,32.83
2018-09-11T07:37:50.194Z,32.41
2018-09-11T07:40:18.735Z,33.02
2018-09-11T07:42:47.363Z,33.49
2018-09-11T07:45:16.025Z,33.64
2018-09-11T07:47:44.705Z,34.11
2018-09-11T07:50:13.488Z,34.53
2018-09-11T07:52:42.361Z,35.73
2018-09-11T07:55:10.922Z,35.84
2018-09-11T07:57:39.730Z,35.85
2018-09-11T08:00:08.841Z,36.78
2018-09-11T08:02:37.439Z,36.71
2018-09-11T08:05:06.049Z,37.88
2018-09-11T08:07:34.639Z,38.02
2018-09-11T08:10:03.331Z,37.01
2018-09-11T08:12:31.909Z,36.85
2018-09-11T08:15:00.592Z,37.66
2018-09-11T08:17:29.181Z,36.83
2018-09-11T08:19:58.031Z,35.54
2018-09-11T08:22:26.833Z,33.67
2018-09-11T08:24:55.493Z,31.55
2018-09-11T08:27:24.285Z,30.58
2018-09-11T08:29:53.072Z,29.82
2018-09-11T08:32:21.686Z,29.18
2018-09-11T08:34:50.305Z,28.11
2018-09-11T08:37:19.109Z,26.26
2018-09-11T08:39:47.942Z,26.31
2018-09-11T08:42:16.767Z,26.43
2018-09-11T08:44:45.384Z,24.62
2018-09-11T08:47:14.030Z,23.97
2018-09-11T08:49:42.596Z,23.53
2018-09-11T08:52:11.289Z,22.95
2018-09-11T08:54:40.024Z,23.22
2018-09-11T08:57:08.625Z,21.47
2018-09-11T08:59:37.697Z,21.50
2018-09-11T09:02:06.801Z,21.21
2018-09-11T09:04:37.189Z,19.99
2018-09-11T09:07:11.383Z,20.39
2018-09-11T09:09:41.349Z,20.33
2018-09-11T09:12:10.763Z,19.81
2018-09-11T09:14:39.851Z,20.44
2018-09-11T09:17:08.912Z,20.25
2018-09-11T09:19:38.186Z,19.63
2018-09-11T09:22:07.462Z,19.46
2018-09-11T09:24:36.659Z,19.44
2018-09-11T09:27:07.112Z,19.64
2018-09-11T09:29:36.042Z,19.90
2018-09-11T16:37:35.072Z,28.36
2018-09-11T16:40:04.517Z,28.69
2018-09-11T16:42:33.263Z,28.46
2018-09-11T16:45:01.882Z,28.91
2018-09-11T16:47:30.515Z,28.72
2018-09-11T16:49:59.265Z,29.04
2018-09-11T16:52:28.233Z,29.01
2018-09-11T16:54:57.022Z,29.05
2018-09-11T16:57:25.799Z,29.15
2018-09-11T16:59:54.579Z,29.57
2018-09-11T17:02:23.374Z,29.39
2018-09-11T17:04:52.072Z,29.67
2018-09-11T17:07:20.616Z,30.04
2018-09-11T17:09:49.230Z,29.79
2018-09-11T17:12:17.811Z,30.04
2018-09-11T17:14:46.597Z,29.98
2018-09-11T17:17:15.937Z,30.34
2018-09-11T17:19:44.610Z,30.21
2018-09-11T17:22:13.350Z,30.06
2018-09-11T17:24:42.031Z,30.59
2018-09-11T17:27:10.915Z,30.53
2018-09-11T17:29:39.477Z,30.74
2018-09-11T17:32:08.108Z,30.41
2018-09-11T17:34:36.663Z,31.14
2018-09-11T17:37:05.448Z,31.40
2018-09-11T17:39:33.990Z,30.44
2018-09-11T17:42:02.671Z,31.49
2018-09-11T17:44:31.309Z,30.92
2018-09-11T17:46:59.796Z,31.11
2018-09-11T17:49:28.390Z,31.15
2018-09-11T17:51:56.968Z,31.27
2018-09-11T17:54:25.509Z,32.06
2018-09-11T17:56:54.057Z,32.08
2018-09-11T17:59:22.667Z,31.62
2018-09-11T18:01:51.237Z,32.12
2018-09-11T18:04:19.841Z,31.84
2018-09-11T18:06:48.448Z,31.80
2018-09-11T18:09:17.119Z,31.68
2018-09-11T18:11:45.742Z,32.82
2018-09-11T18:14:14.323Z,32.13
2018-09-11T18:16:42.843Z,32.99
2018-09-11T18:19:11.514Z,33.00
2018-09-11T18:21:40.073Z,32.35
2018-09-11T18:24:10.783Z,33.14
2018-09-11T18:26:41.519Z,32.42
2018-09-11T18:29:10.231Z,32.78
2018-09-11T18:31:38.964Z,32.83
2018-09-11T18:34:07.573Z,32.59
2018-09-11T18:36:36.227Z,33.22
2018-09-11T18:39:06.395Z,33.55
2018-09-11T18:41:35.003Z,32.96
2018-09-11T18:44:03.672Z,33.72
2018-09-11T18:46:32.487Z,33.92
2018-09-11T18:49:01.140Z,34.15
2018-09-11T18:51:29.856Z,34.08
2018-09-11T18:53:58.350Z,33.72
2018-09-11T18:56:27.016Z,33.60
2018-09-11T18:58:55.587Z,33.92
2018-09-11T19:01:24.203Z,34.62
2018-09-11T19:03:52.839Z,33.95
2018-09-11T19:06:21.377Z,34.77
2018-09-11T19:08:50.004Z,34.52
2018-09-11T19:11:18.762Z,35.09
2018-09-11T19:13:47.378Z,34.45
2018-09-11T19:16:16.041Z,34.44
2018-09-11T19:18:44.717Z,35.26
2018-09-11T19:21:13.367Z,35.31
2018-09-11T19:23:41.968Z,34.57
2018-09-11T19:26:10.676Z,34.54
2018-09-11T19:28:39.231Z,34.71
2018-09-11T19:31:07.822Z,34.74
2018-09-11T19:33:36.562Z,35.57
2018-09-11T19:36:05.112Z,35.14
2018-09-11T19:38:33.730Z,35.87
2018-09-11T19:41:02.364Z,35.66
2018-09-11T19:43:30.943Z,35.39
2018-09-11T19:45:59.870Z,35.72
2018-09-11T19:48:28.523Z,35.91
2018-09-11T19:50:57.342Z,35.88
2018-09-11T19:53:26.165Z,36.93
2018-09-11T19:55:54.881Z,36.98
2018-09-11T19:58:23.554Z,37.25
2018-09-11T20:00:52.115Z,36.29
2018-09-11T20:03:20.803Z,37.61
2018-09-11T20:05:49.398Z,36.95
2018-09-11T20:08:17.877Z,37.83
2018-09-11T20:10:46.550Z,38.18
2018-09-11T20:13:15.119Z,38.39
2018-09-11T20:15:43.733Z,37.94
2018-09-11T20:18:12.350Z,38.91
2018-09-11T20:20:41.132Z,39.24
2018-09-11T20:23:09.826Z,39.18
2018-09-11T20:25:38.428Z,38.67
2018-09-11T20:28:07.713Z,39.34
2018-09-11T20:30:36.600Z,39.18
2018-09-11T20:33:05.413Z,39.23
2018-09-11T20:35:34.390Z,39.14
2018-09-11T20:38:02.996Z,38.98
2018-09-11T20:40:31.600Z,39.12
2018-09-11T20:43:00.466Z,40.19
2018-09-11T20:45:29.169Z,40.41
2018-09-11T20:47:57.985Z,40.74
2018-09-11T20:50:26.668Z,40.86
2018-09-11T20:52:55.393Z,39.82
2018-09-11T20:55:24.177Z,40.26
2018-09-11T20:57:52.783Z,41.08
2018-09-11T21:00:21.528Z,41.49
2018-09-11T21:02:50.243Z,41.38
2018-09-11T21:05:18.986Z,40.96
2018-09-11T21:07:47.669Z,41.52
2018-09-11T21:10:16.385Z,41.20
2018-09-11T21:12:44.997Z,41.23
2018-09-11T21:15:13.615Z,41.70
2018-09-11T21:17:42.268Z,42.25
2018-09-11T21:20:11.051Z,41.95
2018-09-11T21:22:39.647Z,41.81
2018-09-11T21:25:08.365Z,42.28
2018-09-11T21:27:37.057Z,41.99
2018-09-11T21:30:05.741Z,41.97
2018-09-11T21:32:34.264Z,42.47
2018-09-11T21:35:02.860Z,42.17
2018-09-11T21:37:31.554Z,42.25
2018-09-11T21:40:00.213Z,42.48
2018-09-11T21:42:28.891Z,42.65
2018-09-11T21:44:57.678Z,42.63
2018-09-11T21:47:26.443Z,42.30
2018-09-11T21:49:55.008Z,42.92
2018-09-11T21:52:25.381Z,42.56
2018-09-11T21:54:54.364Z,42.44
2018-09-11T21:57:24.222Z,42.63
2018-09-11T21:59:52.770Z,42.65
2018-09-11T22:02:21.756Z,42.66
2018-09-11T22:04:50.296Z,42.62
2018-09-11T22:07:18.847Z,42.70
2018-09-11T22:09:47.385Z,42.94
2018-09-11T22:12:15.987Z,43.30
2018-09-11T22:14:44.541Z,42.70
2018-09-11T22:17:13.071Z,43.22
2018-09-11T22:19:41.643Z,42.76
2018-09-11T22:22:11.511Z,43.75
2018-09-11T22:24:40.071Z,43.85
2018-09-11T22:27:08.631Z,43.90
2018-09-11T22:29:37.187Z,43.92
2018-09-11T22:32:05.722Z,43.44
2018-09-11T22:34:40.047Z,44.22
2018-09-11T22:37:08.689Z,43.87
2018-09-11T22:39:37.208Z,44.01
2018-09-11T22:42:05.789Z,44.42
2018-09-11T22:44:34.308Z,44.60
2018-09-11T22:47:02.879Z,45.40
2018-09-11T22:49:31.404Z,45.44
2018-09-11T22:51:59.958Z,45.20
2018-09-11T22:54:28.471Z,44.78
2018-09-11T22:56:57.026Z,44.48
2018-09-11T22:59:25.555Z,44.90
2018-09-11T23:01:54.170Z,44.24
2018-09-11T23:04:22.781Z,45.00
2018-09-11T23:06:51.409Z,45.05
2018-09-11T23:09:19.905Z,44.63
2018-09-11T23:11:48.413Z,45.07
2018-09-11T23:14:16.948Z,44.54
2018-09-11T23:16:45.485Z,44.97
2018-09-11T23:19:14.023Z,44.57
2018-09-11T23:21:42.529Z,44.85
2018-09-11T23:24:10.969Z,45.20
2018-09-11T23:26:39.528Z,45.32
2018-09-11T23:29:08.027Z,45.31
2018-09-11T23:31:36.594Z,45.24
2018-09-11T23:34:05.049Z,45.48
2018-09-11T23:36:33.647Z,45.49
2018-09-11T23:39:02.258Z,45.55
2018-09-11T23:41:30.770Z,45.68
2018-09-11T23:43:59.400Z,45.56
2018-09-11T23:46:27.887Z,45.81
2018-09-11T23:48:56.404Z,45.96
2018-09-11T23:51:24.911Z,46.00
2018-09-11T23:53:53.414Z,46.22
2018-09-11T23:56:21.936Z,46.94
2018-09-11T23:58:50.422Z,47.62
